createdAt,value
2019-05-12T00:01:25.337Z,54.07
2019-05-12T00:03:58.036Z,54.05
2019-05-12T00:06:29.511Z,54.06
2019-05-12T00:09:00.820Z,54.07
2019-05-12T00:11:34.092Z,54.05
2019-05-12T00:14:05.365Z,54.00
2019-05-12T00:16:38.360Z,53.99
2019-05-12T00:19:09.833Z,53.96
2019-05-12T00:21:41.123Z,53.92
2019-05-12T00:24:12.410Z,53.91
2019-05-12T00:26:45.067Z,53.91
2019-05-12T00:29:18.333Z,53.82
2019-05-12T00:31:49.342Z,53.79
2019-05-12T00:34:20.624Z,53.85
2019-05-12T00:36:51.997Z,53.79
2019-05-12T00:39:23.359Z,53.71
2019-05-12T00:41:54.617Z,53.65
2019-05-12T00:44:27.866Z,53.54
2019-05-12T00:46:58.951Z,53.50
2019-05-12T00:49:30.212Z,53.46
2019-05-12T00:52:01.619Z,53.36
2019-05-12T00:54:32.865Z,53.37
2019-05-12T00:57:04.248Z,53.27
2019-05-12T00:59:35.571Z,53.31
2019-05-12T01:02:08.002Z,53.25
2019-05-12T01:04:39.304Z,53.29
2019-05-12T01:07:10.551Z,53.25
2019-05-12T01:09:41.839Z,53.28
2019-05-12T01:12:14.177Z,53.32
2019-05-12T01:14:47.317Z,53.31
2019-05-12T01:17:18.541Z,53.33
2019-05-12T01:19:49.770Z,53.32
2019-05-12T01:22:21.166Z,53.40
2019-05-12T01:24:52.400Z,53.43
2019-05-12T01:27:23.699Z,53.44
2019-05-12T01:29:54.962Z,53.46
2019-05-12T01:32:33.929Z,53.53
2019-05-12T01:35:08.282Z,53.60
2019-05-12T01:37:39.182Z,53.63
2019-05-12T01:40:11.531Z,53.68
2019-05-12T01:42:42.779Z,53.72
2019-05-12T01:45:14.283Z,53.78
2019-05-12T01:47:45.609Z,53.87
2019-05-12T01:50:17.789Z,53.89
2019-05-12T01:52:49.179Z,53.94
2019-05-12T01:55:20.510Z,54.00
2019-05-12T01:57:51.803Z,54.06
2019-05-12T02:00:23.044Z,54.17
2019-05-12T02:02:54.592Z,54.23
2019-05-12T02:05:28.070Z,54.28
2019-05-12T02:07:59.530Z,54.28
2019-05-12T02:10:30.909Z,54.28
2019-05-12T02:13:02.199Z,54.31
2019-05-12T02:15:33.685Z,54.36
2019-05-12T02:18:04.932Z,54.37
2019-05-12T02:20:38.126Z,54.44
2019-05-12T02:23:09.322Z,54.52
2019-05-12T02:25:40.601Z,54.60
2019-05-12T02:28:11.962Z,54.68
2019-05-12T02:30:43.200Z,54.76
2019-05-12T02:33:16.006Z,54.79
2019-05-12T02:35:47.374Z,54.85
2019-05-12T02:38:18.623Z,54.93
2019-05-12T02:40:49.901Z,54.99
2019-05-12T02:43:24.164Z,55.01
2019-05-12T02:45:54.784Z,55.07
2019-05-12T02:48:26.210Z,55.08
2019-05-12T02:50:57.470Z,55.14
2019-05-12T02:53:29.135Z,55.20
2019-05-12T02:56:00.896Z,55.22
2019-05-12T02:58:34.657Z,55.28
2019-05-12T03:01:06.095Z,55.31
2019-05-12T03:03:40.210Z,55.35
2019-05-12T03:06:14.880Z,55.40
2019-05-12T03:08:44.987Z,55.43
2019-05-12T03:11:16.391Z,55.46
2019-05-12T03:13:47.662Z,55.48
2019-05-12T03:16:18.887Z,55.56
2019-05-12T03:18:50.251Z,55.65
2019-05-12T03:21:24.421Z,55.70
2019-05-12T03:23:55.231Z,55.91
2019-05-12T03:26:26.590Z,55.97
2019-05-12T03:28:57.871Z,55.94
2019-05-12T03:31:31.648Z,56.00
2019-05-12T03:34:08.153Z,55.99
2019-05-12T03:36:42.283Z,56.05
2019-05-12T03:39:09.258Z,56.15
2019-05-12T03:41:40.632Z,56.26
2019-05-12T03:44:14.799Z,56.27
2019-05-12T03:46:45.804Z,56.20
2019-05-12T03:49:18.377Z,56.23
2019-05-12T03:51:49.623Z,56.24
2019-05-12T03:54:24.163Z,56.39
2019-05-12T03:56:55.694Z,56.36
2019-05-12T03:59:26.880Z,56.43
2019-05-12T04:01:58.284Z,56.48
2019-05-12T04:04:29.544Z,56.50
2019-05-12T04:07:00.835Z,56.48
2019-05-12T04:09:34.894Z,56.47
2019-05-12T04:12:05.467Z,56.52
2019-05-12T04:14:36.673Z,56.51
2019-05-12T04:17:08.008Z,56.58
2019-05-12T04:19:39.415Z,56.58
2019-05-12T04:22:10.678Z,56.70
2019-05-12T04:24:44.544Z,56.63
2019-05-12T04:27:15.293Z,56.61
2019-05-12T04:29:46.466Z,56.68
2019-05-12T04:32:17.766Z,56.63
2019-05-12T04:34:49.101Z,56.58
2019-05-12T04:37:20.312Z,56.62
2019-05-12T04:39:51.608Z,56.60
2019-05-12T04:42:25.141Z,56.62
2019-05-12T04:44:55.938Z,56.64
2019-05-12T04:47:27.233Z,56.61
2019-05-12T04:49:58.562Z,56.68
2019-05-12T04:52:29.781Z,56.66
2019-05-12T04:55:04.475Z,56.61
2019-05-12T04:57:34.771Z,56.58
2019-05-12T05:00:06.243Z,56.59
2019-05-12T05:02:37.491Z,56.55
2019-05-12T05:05:08.862Z,56.53
2019-05-12T05:07:40.247Z,56.48
2019-05-12T05:10:14.286Z,56.37
2019-05-12T05:12:45.105Z,56.38
2019-05-12T05:15:16.414Z,56.38
2019-05-12T05:17:47.775Z,56.32
2019-05-12T05:20:19.115Z,56.32
2019-05-12T05:22:50.420Z,56.24
2019-05-12T05:25:23.630Z,56.31
2019-05-12T05:27:54.703Z,56.32
2019-05-12T05:30:25.974Z,56.30
2019-05-12T05:32:57.237Z,56.23
2019-05-12T05:35:33.681Z,56.28
2019-05-12T05:38:01.502Z,56.21
2019-05-12T05:40:35.274Z,56.13
2019-05-12T05:43:18.309Z,56.13
2019-05-12T05:45:38.886Z,56.11
2019-05-12T05:48:10.388Z,56.05
2019-05-12T05:50:43.871Z,56.14
2019-05-12T05:53:19.634Z,56.02
2019-05-12T05:55:50.409Z,56.00
2019-05-12T05:58:20.864Z,55.99
2019-05-12T06:00:54.747Z,55.93
2019-05-12T06:03:27.963Z,55.94
2019-05-12T06:06:01.426Z,55.92
2019-05-12T06:08:33.846Z,55.80
2019-05-12T06:11:08.414Z,55.68
2019-05-12T06:13:40.161Z,55.62
2019-05-12T06:16:20.229Z,55.65
2019-05-12T06:18:45.390Z,55.59
2019-05-12T06:21:16.674Z,55.47
2019-05-12T06:23:47.956Z,55.46
2019-05-12T06:26:21.025Z,55.38
2019-05-12T06:28:54.979Z,55.30
2019-05-12T06:31:29.729Z,55.25
2019-05-12T06:33:58.209Z,55.08
2019-05-12T06:36:29.464Z,54.97
2019-05-12T06:39:00.703Z,54.87
2019-05-12T06:41:33.842Z,54.76
2019-05-12T06:44:08.713Z,54.65
2019-05-12T06:46:38.381Z,54.57
2019-05-12T06:49:15.586Z,54.41
2019-05-12T06:51:44.466Z,54.36
2019-05-12T06:54:15.675Z,54.28
2019-05-12T06:56:50.028Z,54.18
2019-05-12T06:59:20.040Z,54.13
2019-05-12T07:01:56.155Z,54.01
2019-05-12T07:04:24.315Z,54.00
2019-05-12T07:07:00.440Z,54.03
2019-05-12T07:09:32.206Z,53.98
2019-05-12T07:12:06.141Z,54.01
2019-05-12T07:14:34.746Z,54.06
2019-05-12T07:17:23.800Z,54.04
2019-05-12T07:19:58.074Z,54.02
2019-05-12T07:22:31.803Z,53.98
2019-05-12T07:25:04.316Z,53.87
2019-05-12T07:27:39.303Z,53.75
2019-05-12T07:30:08.830Z,53.64
2019-05-12T07:32:40.144Z,53.61
2019-05-12T07:35:12.065Z,53.41
2019-05-12T07:37:44.501Z,53.26
2019-05-12T07:40:18.973Z,53.11
2019-05-12T07:42:48.964Z,52.80
2019-05-12T07:45:22.269Z,52.81
2019-05-12T07:47:54.159Z,52.71
2019-05-12T07:50:27.368Z,52.38
2019-05-12T07:52:58.817Z,52.47
2019-05-12T07:55:30.092Z,52.47
2019-05-12T07:58:10.335Z,52.42
2019-05-12T08:00:34.584Z,52.30
2019-05-12T08:03:14.691Z,52.13
2019-05-12T08:05:39.072Z,52.03
2019-05-12T08:08:10.989Z,51.81
2019-05-12T08:10:44.320Z,51.90
2019-05-12T08:13:18.315Z,51.77
2019-05-12T08:15:51.226Z,51.56
2019-05-12T08:18:21.551Z,51.48
2019-05-12T08:20:53.939Z,51.47
2019-05-12T08:23:25.252Z,51.39
2019-05-12T08:25:56.587Z,51.25
2019-05-12T08:28:34.931Z,51.22
2019-05-12T08:31:03.445Z,50.86
2019-05-12T08:33:34.717Z,50.98
2019-05-12T08:36:11.238Z,50.96
2019-05-12T08:38:39.246Z,50.90
2019-05-12T08:41:10.496Z,50.76
2019-05-12T08:43:47.112Z,50.60
2019-05-12T08:46:16.069Z,50.45
2019-05-12T08:48:51.418Z,50.47
2019-05-12T08:51:20.350Z,50.33
2019-05-12T08:53:56.200Z,50.08
2019-05-12T08:56:26.215Z,50.16
2019-05-12T08:58:57.604Z,50.08
2019-05-12T09:01:30.766Z,49.73
2019-05-12T09:04:06.497Z,49.83
2019-05-12T09:06:34.868Z,49.78
2019-05-12T09:09:07.878Z,49.54
2019-05-12T09:11:40.453Z,49.59
2019-05-12T09:14:14.447Z,49.47
2019-05-12T09:16:44.707Z,49.09
2019-05-12T09:19:23.560Z,49.25
2019-05-12T09:21:49.075Z,49.06
2019-05-12T09:24:25.412Z,48.76
2019-05-12T09:26:53.830Z,48.69
2019-05-12T09:29:25.410Z,48.51
2019-05-12T09:31:59.309Z,48.53
2019-05-12T09:34:29.677Z,48.59
2019-05-12T09:37:01.142Z,48.33
2019-05-12T09:39:42.054Z,47.68
2019-05-12T09:42:06.313Z,47.86
2019-05-12T09:44:37.566Z,47.92
2019-05-12T09:47:21.810Z,47.74
2019-05-12T09:49:44.299Z,47.55
2019-05-12T09:52:22.178Z,47.46
2019-05-12T09:54:48.488Z,47.27
2019-05-12T09:57:20.048Z,46.76
2019-05-12T09:59:58.172Z,46.57
2019-05-12T10:02:27.089Z,46.56
2019-05-12T10:05:00.771Z,46.47
2019-05-12T10:07:33.414Z,46.51
2019-05-12T10:10:05.004Z,46.29
2019-05-12T10:12:45.113Z,46.03
2019-05-12T10:15:09.485Z,46.05
2019-05-12T10:17:40.794Z,45.93
2019-05-12T10:20:13.735Z,45.38
2019-05-12T10:22:46.259Z,45.51
2019-05-12T10:25:17.542Z,45.35
2019-05-12T10:27:48.806Z,44.81
2019-05-12T10:30:20.045Z,44.40
2019-05-12T10:32:51.281Z,44.74
2019-05-12T10:35:26.205Z,44.69
2019-05-12T10:38:00.267Z,44.42
2019-05-12T10:40:29.381Z,44.34
2019-05-12T10:43:00.989Z,43.83
2019-05-12T10:45:33.679Z,43.90
2019-05-12T10:48:05.650Z,44.17
2019-05-12T10:50:37.201Z,44.16
2019-05-12T10:53:09.849Z,43.34
2019-05-12T10:55:44.042Z,43.78
2019-05-12T10:58:15.628Z,43.35
2019-05-12T11:00:47.290Z,43.17
2019-05-12T11:03:20.511Z,43.52
2019-05-12T11:05:56.713Z,43.34
2019-05-12T11:08:25.145Z,42.93
2019-05-12T11:11:01.151Z,42.96
2019-05-12T11:13:29.995Z,42.88
2019-05-12T11:16:03.664Z,42.42
2019-05-12T11:18:34.773Z,42.52
2019-05-12T11:21:06.167Z,42.38
2019-05-12T11:23:37.495Z,41.63
2019-05-12T11:26:08.759Z,42.07
2019-05-12T11:28:40.047Z,42.03
2019-05-12T11:31:13.527Z,41.68
2019-05-12T11:33:45.307Z,41.58
2019-05-12T11:36:16.819Z,41.39
2019-05-12T11:38:49.223Z,41.38
2019-05-12T11:41:20.565Z,41.25
2019-05-12T11:43:51.941Z,40.85
2019-05-12T11:46:23.866Z,40.61
2019-05-12T11:48:55.386Z,40.88
2019-05-12T11:51:30.287Z,40.50
2019-05-12T11:54:03.496Z,40.01
2019-05-12T11:56:33.661Z,40.15
2019-05-12T11:59:06.197Z,40.18
2019-05-12T12:01:39.704Z,39.96
2019-05-12T12:04:10.530Z,40.00
2019-05-12T12:06:43.850Z,39.84
2019-05-12T12:09:18.889Z,39.72
2019-05-12T12:11:54.674Z,39.55
2019-05-12T12:14:23.863Z,39.38
2019-05-12T12:16:55.325Z,39.07
2019-05-12T12:19:37.713Z,38.92
2019-05-12T12:21:59.610Z,38.51
2019-05-12T12:24:31.693Z,38.52
2019-05-12T12:27:03.900Z,38.25
2019-05-12T12:29:36.068Z,38.29
2019-05-12T12:32:10.015Z,38.24
2019-05-12T12:34:43.887Z,38.08
2019-05-12T12:37:18.839Z,38.00
2019-05-12T12:39:47.602Z,37.79
2019-05-12T12:42:18.904Z,37.30
2019-05-12T12:44:53.590Z,37.05
2019-05-12T12:47:23.838Z,36.95
2019-05-12T12:49:55.251Z,36.96
2019-05-12T12:52:26.521Z,36.89
2019-05-12T12:54:59.228Z,36.73
2019-05-12T12:57:30.897Z,36.35
2019-05-12T13:00:03.801Z,36.30
2019-05-12T13:02:39.135Z,36.03
2019-05-12T13:05:08.520Z,35.67
2019-05-12T13:07:39.898Z,35.74
2019-05-12T13:10:11.431Z,34.98
2019-05-12T13:12:43.786Z,35.37
2019-05-12T13:15:15.375Z,34.96
2019-05-12T13:17:46.722Z,35.09
2019-05-12T13:20:17.988Z,35.02
2019-05-12T13:22:49.411Z,34.90
2019-05-12T13:25:20.737Z,34.66
2019-05-12T13:27:53.517Z,34.08
2019-05-12T13:30:24.811Z,34.37
2019-05-12T13:32:56.129Z,34.25
2019-05-12T13:35:27.404Z,34.16
2019-05-12T13:38:00.581Z,33.65
2019-05-12T13:40:36.082Z,33.31
2019-05-12T13:43:09.276Z,33.17
2019-05-12T13:45:37.917Z,32.75
2019-05-12T13:48:14.683Z,32.38
2019-05-12T13:50:43.300Z,31.86
2019-05-12T13:53:14.820Z,31.51
2019-05-12T13:55:49.501Z,31.69
2019-05-12T13:58:19.256Z,31.55
2019-05-12T14:01:12.314Z,31.43
2019-05-12T14:03:27.801Z,31.29
2019-05-12T14:05:57.648Z,30.92
2019-05-12T14:08:28.945Z,30.96
2019-05-12T14:11:00.304Z,31.10
2019-05-12T14:13:33.664Z,31.03
2019-05-12T14:16:06.798Z,30.94
2019-05-12T14:18:38.817Z,30.78
2019-05-12T14:21:10.205Z,30.41
2019-05-12T14:23:43.662Z,30.17
2019-05-12T14:26:14.604Z,30.37
2019-05-12T14:28:49.627Z,30.68
2019-05-12T14:31:27.481Z,30.98
2019-05-12T14:33:53.886Z,31.15
2019-05-12T14:36:26.557Z,30.96
2019-05-12T14:39:00.161Z,30.99
2019-05-12T14:41:34.172Z,31.02
2019-05-12T14:44:05.519Z,30.86
2019-05-12T14:46:40.035Z,30.31
2019-05-12T14:49:09.950Z,29.34
2019-05-12T14:51:41.236Z,28.96
2019-05-12T14:54:13.437Z,28.87
2019-05-12T14:56:53.002Z,28.74
2019-05-12T14:59:17.857Z,28.71
2019-05-12T15:01:57.447Z,28.66
2019-05-12T15:04:27.847Z,28.23
2019-05-12T15:06:59.811Z,27.52
2019-05-12T15:09:28.228Z,26.90
2019-05-12T15:11:59.527Z,26.65
2019-05-12T15:14:36.008Z,26.11
2019-05-12T15:17:03.811Z,25.74
2019-05-12T15:19:35.414Z,25.59
2019-05-12T15:22:10.267Z,25.50
2019-05-12T15:24:39.857Z,25.48
2019-05-12T15:27:13.284Z,25.55
2019-05-12T15:29:50.085Z,25.45
2019-05-12T15:32:20.104Z,25.23
2019-05-12T15:34:51.327Z,25.41
2019-05-12T15:37:23.837Z,25.68
2019-05-12T15:39:55.161Z,25.78
2019-05-12T15:42:26.511Z,25.90
2019-05-12T15:44:57.835Z,25.79
2019-05-12T15:47:30.106Z,26.06
2019-05-12T15:50:03.891Z,26.18
2019-05-12T15:52:38.270Z,26.26
2019-05-12T15:55:07.652Z,26.01
2019-05-12T15:57:38.966Z,26.49
2019-05-12T16:00:10.673Z,26.86
2019-05-12T16:02:44.064Z,27.13
2019-05-12T16:05:20.080Z,27.42
2019-05-12T16:07:48.320Z,27.63
2019-05-12T16:10:19.835Z,27.81
2019-05-12T16:12:51.251Z,27.94
2019-05-12T16:15:23.457Z,28.16
2019-05-12T16:17:59.506Z,28.24
2019-05-12T16:20:27.808Z,28.17
2019-05-12T16:22:59.080Z,28.17
2019-05-12T16:25:31.104Z,28.29
2019-05-12T16:28:07.674Z,28.23
2019-05-12T16:30:35.705Z,28.19
2019-05-12T16:33:14.373Z,28.29
2019-05-12T16:35:40.111Z,28.40
2019-05-12T16:38:17.313Z,28.46
2019-05-12T16:40:48.569Z,28.47
2019-05-12T16:43:17.808Z,28.60
2019-05-12T16:45:50.330Z,28.53
2019-05-12T16:48:32.085Z,28.64
2019-05-12T16:50:54.604Z,28.73
2019-05-12T16:53:27.869Z,28.74
2019-05-12T16:55:58.993Z,28.88
2019-05-12T16:58:33.331Z,28.98
2019-05-12T17:01:03.928Z,29.14
2019-05-12T17:03:35.286Z,29.18
2019-05-12T17:06:06.598Z,29.33
2019-05-12T17:08:37.949Z,29.40
2019-05-12T17:11:24.150Z,29.60
2019-05-12T17:13:47.434Z,29.68
2019-05-12T17:16:15.359Z,29.58
2019-05-12T17:18:46.751Z,29.88
2019-05-12T17:21:17.993Z,29.94
2019-05-12T17:23:49.324Z,30.02
2019-05-12T17:26:20.697Z,30.07
2019-05-12T17:28:53.813Z,30.01
2019-05-12T17:31:25.445Z,29.94
2019-05-12T17:34:00.183Z,29.74
2019-05-12T17:36:29.842Z,29.53
2019-05-12T17:39:01.199Z,29.33
2019-05-12T17:41:40.318Z,29.20
2019-05-12T17:44:07.065Z,29.05
2019-05-12T17:46:39.738Z,28.91
2019-05-12T17:49:15.704Z,28.78
2019-05-12T17:51:44.252Z,28.73
2019-05-12T17:54:21.763Z,28.72
2019-05-12T17:56:48.529Z,28.74
2019-05-12T17:59:27.634Z,28.80
2019-05-12T18:01:53.740Z,28.87
2019-05-12T18:04:30.430Z,28.96
2019-05-12T18:07:06.020Z,29.03
2019-05-12T18:09:31.957Z,29.25
2019-05-12T18:12:04.269Z,29.39
2019-05-12T18:14:44.699Z,29.47
2019-05-12T18:17:08.985Z,29.67
2019-05-12T18:19:40.486Z,29.79
2019-05-12T18:22:14.029Z,29.89
2019-05-12T18:24:49.355Z,30.01
2019-05-12T18:27:18.636Z,30.16
2019-05-12T18:29:49.911Z,30.27
2019-05-12T18:32:21.184Z,30.40
2019-05-12T18:34:53.927Z,30.51
2019-05-12T18:37:25.361Z,30.60
2019-05-12T18:39:56.757Z,30.71
2019-05-12T18:42:28.112Z,30.84
2019-05-12T18:45:02.422Z,30.94
2019-05-12T18:47:36.524Z,31.00
2019-05-12T18:50:06.959Z,31.10
2019-05-12T18:52:43.062Z,31.19
2019-05-12T18:55:11.371Z,31.26
2019-05-12T18:57:47.887Z,31.36
2019-05-12T19:00:20.167Z,31.46
2019-05-12T19:02:54.649Z,31.54
2019-05-12T19:05:30.541Z,31.64
2019-05-12T19:07:59.307Z,31.74
2019-05-12T19:10:33.414Z,31.86
2019-05-12T19:13:06.756Z,31.95
2019-05-12T19:15:38.318Z,32.07
2019-05-12T19:18:09.669Z,32.17
2019-05-12T19:20:43.175Z,32.30
2019-05-12T19:23:14.314Z,32.42
2019-05-12T19:25:45.785Z,32.51
2019-05-12T19:28:17.186Z,32.55
2019-05-12T19:30:50.261Z,32.70
2019-05-12T19:33:21.643Z,32.80
2019-05-12T19:35:59.887Z,32.88
2019-05-12T19:38:26.148Z,32.98
2019-05-12T19:41:00.793Z,33.06
2019-05-12T19:43:30.624Z,33.12
2019-05-12T19:46:03.427Z,33.22
2019-05-12T19:48:43.032Z,33.29
2019-05-12T19:51:20.794Z,33.34
2019-05-12T19:53:41.036Z,33.53
2019-05-12T19:56:14.215Z,33.71
2019-05-12T19:58:46.004Z,33.83
2019-05-12T20:01:17.428Z,33.93
2019-05-12T20:03:49.953Z,34.06
2019-05-12T20:06:24.148Z,34.15
2019-05-12T20:09:06.128Z,34.25
2019-05-12T20:11:31.395Z,34.33
2019-05-12T20:14:04.030Z,34.45
2019-05-12T20:16:34.758Z,34.56
2019-05-12T20:19:06.093Z,34.62
2019-05-12T20:21:37.495Z,34.74
2019-05-12T20:24:08.783Z,34.88
2019-05-12T20:26:40.256Z,34.96
2019-05-12T20:29:13.688Z,35.03
2019-05-12T20:31:48.621Z,35.11
2019-05-12T20:34:17.626Z,35.16
2019-05-12T20:36:49.018Z,35.28
2019-05-12T20:39:22.407Z,35.35
2019-05-12T20:41:54.636Z,35.46
2019-05-12T20:44:26.570Z,35.55
2019-05-12T20:47:01.719Z,35.66
2019-05-12T20:49:33.540Z,35.74
2019-05-12T20:52:09.331Z,35.81
2019-05-12T20:54:37.168Z,35.90
2019-05-12T20:57:08.540Z,35.99
2019-05-12T20:59:39.884Z,36.08
2019-05-12T21:02:11.188Z,36.18
2019-05-12T21:04:44.343Z,36.21
2019-05-12T21:07:21.749Z,36.29
2019-05-12T21:09:48.496Z,36.36
2019-05-12T21:12:19.754Z,36.42
2019-05-12T21:14:52.082Z,36.54
2019-05-12T21:17:39.008Z,36.61
2019-05-12T21:19:59.468Z,36.67
2019-05-12T21:22:29.989Z,36.86
2019-05-12T21:25:03.988Z,37.09
2019-05-12T21:27:34.234Z,37.18
2019-05-12T21:30:09.532Z,37.32
2019-05-12T21:32:38.716Z,37.43
2019-05-12T21:35:19.224Z,37.47
2019-05-12T21:37:46.048Z,37.54
2019-05-12T21:40:16.284Z,37.67
2019-05-12T21:42:49.311Z,37.72
2019-05-12T21:45:26.737Z,37.89
2019-05-12T21:47:56.323Z,37.97
2019-05-12T21:50:32.662Z,38.08
2019-05-12T21:53:00.263Z,38.20
2019-05-12T21:55:33.461Z,38.29
2019-05-12T21:58:10.645Z,38.36
2019-05-12T22:00:44.806Z,38.58
2019-05-12T22:03:15.950Z,38.66
2019-05-12T22:05:52.115Z,38.74
2019-05-12T22:08:24.618Z,38.80
2019-05-12T22:10:55.008Z,38.87
2019-05-12T22:13:26.376Z,38.89
2019-05-12T22:15:59.119Z,38.98
2019-05-12T22:18:33.383Z,39.08
2019-05-12T22:21:06.937Z,39.13
2019-05-12T22:23:44.504Z,39.20
2019-05-12T22:26:10.759Z,39.27
2019-05-12T22:28:46.702Z,39.34
2019-05-12T22:31:15.189Z,39.41
2019-05-12T22:33:52.204Z,39.66
2019-05-12T22:36:25.389Z,39.61
2019-05-12T22:39:00.561Z,39.66
2019-05-12T22:41:30.429Z,39.80
2019-05-12T22:43:58.498Z,39.83
2019-05-12T22:46:31.238Z,39.98
2019-05-12T22:49:04.234Z,40.05
2019-05-12T22:51:35.652Z,40.06
2019-05-12T22:54:10.458Z,40.16
2019-05-12T22:56:39.865Z,40.19
2019-05-12T22:59:13.650Z,40.28
2019-05-12T23:01:46.755Z,40.29
2019-05-12T23:04:17.347Z,40.40
2019-05-12T23:06:48.651Z,40.51
2019-05-12T23:09:25.863Z,40.53
2019-05-12T23:11:53.560Z,40.62
2019-05-12T23:14:25.263Z,40.69
2019-05-12T23:16:59.949Z,40.76
2019-05-12T23:19:29.616Z,40.77
2019-05-12T23:22:01.008Z,40.95
2019-05-12T23:24:37.326Z,41.12
2019-05-12T23:27:08.569Z,41.11
2019-05-12T23:29:38.482Z,41.16
2019-05-12T23:32:11.965Z,41.37
2019-05-12T23:34:45.014Z,41.36
2019-05-12T23:37:15.722Z,41.50
2019-05-12T23:39:46.987Z,41.61
2019-05-12T23:42:18.239Z,41.75
2019-05-12T23:44:49.507Z,41.81
2019-05-12T23:47:21.010Z,42.02
2019-05-12T23:49:53.188Z,42.05
2019-05-12T23:52:24.598Z,42.10
2019-05-12T23:54:55.861Z,42.15
2019-05-12T23:57:27.127Z,42.21
2019-05-12T23:59:58.450Z,42.34
